createdAt,value
2017-09-24T00:02:02.197Z,87.70
2017-09-24T00:04:29.858Z,87.60
2017-09-24T00:06:57.446Z,87.60
2017-09-24T00:09:25.821Z,87.90
2017-09-24T00:11:54.231Z,88.00
2017-09-24T00:14:21.836Z,88.00
2017-09-24T00:16:49.482Z,88.10
2017-09-24T00:19:17.280Z,88.20
2017-09-24T00:21:44.870Z,88.30
2017-09-24T00:24:12.464Z,88.20
2017-09-24T00:26:40.123Z,87.90
2017-09-24T00:29:07.737Z,88.00
2017-09-24T00:31:35.343Z,87.90
2017-09-24T00:34:03.776Z,87.90
2017-09-24T00:36:31.378Z,87.90
2017-09-24T00:38:58.995Z,87.90
2017-09-24T00:41:27.419Z,87.80
2017-09-24T00:43:55.034Z,87.80
2017-09-24T00:46:22.634Z,87.60
2017-09-24T00:48:51.050Z,87.80
2017-09-24T00:51:18.653Z,87.70
2017-09-24T00:53:47.025Z,87.90
2017-09-24T00:56:14.684Z,87.90
2017-09-24T00:58:42.286Z,88.00
2017-09-24T01:01:09.879Z,88.20
2017-09-24T01:03:37.719Z,88.10
2017-09-24T01:06:05.311Z,88.20
2017-09-24T01:08:34.430Z,88.10
2017-09-24T01:11:02.339Z,88.10
2017-09-24T01:13:29.963Z,88.10
2017-09-24T01:15:57.572Z,88.20
2017-09-24T01:18:25.228Z,88.40
2017-09-24T01:20:52.831Z,88.20
2017-09-24T01:23:20.430Z,88.50
2017-09-24T01:25:48.085Z,88.40
2017-09-24T01:28:15.694Z,88.50
2017-09-24T01:30:44.098Z,88.50
2017-09-24T01:33:11.926Z,88.50
2017-09-24T01:35:39.532Z,88.70
2017-09-24T01:38:07.913Z,88.70
2017-09-24T01:40:36.317Z,88.50
2017-09-24T01:43:03.927Z,88.50
2017-09-24T01:45:31.519Z,89.30
2017-09-24T01:47:59.275Z,88.50
2017-09-24T01:50:26.895Z,88.60
2017-09-24T01:52:54.666Z,88.70
2017-09-24T01:55:22.317Z,88.70
2017-09-24T01:57:50.696Z,88.70
2017-09-24T02:00:19.076Z,88.90
2017-09-24T02:02:47.497Z,88.70
2017-09-24T02:05:15.103Z,88.70
2017-09-24T02:07:42.698Z,88.80
2017-09-24T02:10:10.360Z,88.90
2017-09-24T02:12:38.740Z,88.80
2017-09-24T02:15:06.450Z,88.80
2017-09-24T02:17:34.114Z,88.90
2017-09-24T02:20:01.735Z,89.00
2017-09-24T02:22:29.343Z,88.80
2017-09-24T02:24:57.211Z,89.00
2017-09-24T02:27:24.829Z,89.00
2017-09-24T02:29:52.436Z,89.10
2017-09-24T02:32:20.371Z,89.20
2017-09-24T02:34:47.975Z,89.10
2017-09-24T02:37:15.585Z,89.00
2017-09-24T02:39:43.985Z,89.30
2017-09-24T02:42:12.372Z,89.30
2017-09-24T02:44:39.962Z,89.30
2017-09-24T02:47:07.598Z,89.30
2017-09-24T02:49:35.307Z,89.50
2017-09-24T02:52:02.919Z,89.60
2017-09-24T02:54:31.435Z,89.60
2017-09-24T02:56:59.030Z,89.60
2017-09-24T02:59:27.408Z,89.70
2017-09-24T03:01:55.184Z,89.60
2017-09-24T03:04:22.798Z,89.80
2017-09-24T03:06:50.397Z,89.90
2017-09-24T03:09:18.053Z,89.90
2017-09-24T03:11:45.654Z,90.00
2017-09-24T03:14:13.334Z,90.00
2017-09-24T03:16:40.979Z,90.00
2017-09-24T03:19:08.565Z,90.10
2017-09-24T03:21:36.184Z,90.10
2017-09-24T03:24:05.348Z,90.30
2017-09-24T03:26:32.998Z,90.20
2017-09-24T03:29:00.593Z,90.20
2017-09-24T03:31:28.347Z,90.30
2017-09-24T03:33:55.938Z,90.20
2017-09-24T03:36:23.554Z,90.20
2017-09-24T03:38:51.216Z,90.30
2017-09-24T03:41:18.823Z,90.30
2017-09-24T03:43:46.440Z,90.30
2017-09-24T03:46:15.038Z,90.40
2017-09-24T03:48:42.648Z,90.30
2017-09-24T03:51:10.249Z,90.40
2017-09-24T03:53:37.915Z,90.30
2017-09-24T03:56:05.519Z,90.40
2017-09-24T03:58:33.110Z,90.30
2017-09-24T04:01:00.766Z,90.40
2017-09-24T04:03:28.370Z,90.30
2017-09-24T04:05:55.973Z,90.30
2017-09-24T04:08:24.486Z,90.40
2017-09-24T04:10:52.074Z,90.40
2017-09-24T04:13:20.445Z,90.40
2017-09-24T04:15:49.047Z,90.50
2017-09-24T04:18:16.652Z,90.50
2017-09-24T04:20:45.052Z,90.60
2017-09-24T04:23:12.694Z,90.60
2017-09-24T04:25:40.290Z,90.60
2017-09-24T04:28:07.886Z,90.60
2017-09-24T04:30:35.715Z,90.70
2017-09-24T04:33:03.311Z,90.60
2017-09-24T04:35:31.374Z,90.60
2017-09-24T04:37:59.193Z,90.60
2017-09-24T04:40:26.800Z,90.60
2017-09-24T04:42:57.328Z,90.70
2017-09-24T04:45:25.297Z,90.60
2017-09-24T04:47:52.909Z,90.60
2017-09-24T04:50:20.519Z,90.70
2017-09-24T04:52:48.175Z,90.80
2017-09-24T04:55:16.525Z,90.90
2017-09-24T04:57:44.143Z,90.90
2017-09-24T05:00:11.793Z,90.70
2017-09-24T05:02:39.464Z,90.90
2017-09-24T05:05:07.107Z,90.80
2017-09-24T05:07:34.761Z,90.80
2017-09-24T05:10:02.372Z,90.80
2017-09-24T05:12:29.989Z,91.00
2017-09-24T05:14:57.743Z,91.00
2017-09-24T05:17:25.434Z,91.00
2017-09-24T05:19:53.036Z,91.00
2017-09-24T05:22:20.899Z,90.90
2017-09-24T05:24:48.494Z,91.00
2017-09-24T05:27:16.107Z,91.10
2017-09-24T05:29:43.846Z,91.10
2017-09-24T05:32:11.450Z,91.10
2017-09-24T05:34:39.814Z,91.30
2017-09-24T05:37:07.480Z,91.30
2017-09-24T05:39:35.175Z,91.40
2017-09-24T05:42:05.391Z,91.50
2017-09-24T05:44:33.190Z,91.50
2017-09-24T05:47:00.806Z,91.60
2017-09-24T05:49:28.406Z,91.60
2017-09-24T05:51:56.072Z,91.60
2017-09-24T05:54:24.447Z,91.60
2017-09-24T05:56:52.809Z,91.70
2017-09-24T05:59:21.226Z,91.70
2017-09-24T06:01:48.891Z,91.70
2017-09-24T06:04:16.503Z,91.70
2017-09-24T06:06:44.159Z,91.60
2017-09-24T06:09:11.789Z,91.60
2017-09-24T06:11:39.395Z,91.60
2017-09-24T06:14:07.810Z,91.70
2017-09-24T06:16:35.417Z,91.60
2017-09-24T06:19:03.041Z,91.70
2017-09-24T06:21:31.562Z,91.70
2017-09-24T06:23:59.170Z,91.70
2017-09-24T06:26:27.549Z,91.40
2017-09-24T06:28:55.307Z,91.40
2017-09-24T06:31:22.920Z,91.50
2017-09-24T06:33:51.282Z,91.50
2017-09-24T06:36:19.716Z,91.50
2017-09-24T06:38:47.310Z,91.40
2017-09-24T06:41:14.924Z,91.50
2017-09-24T06:43:43.356Z,91.50
2017-09-24T06:46:10.956Z,91.50
2017-09-24T06:48:38.572Z,91.40
2017-09-24T06:51:06.240Z,91.40
2017-09-24T06:53:34.609Z,91.30
2017-09-24T06:56:02.985Z,91.10
2017-09-24T06:58:30.630Z,91.40
2017-09-24T07:00:58.238Z,91.20
2017-09-24T07:03:26.605Z,91.10
2017-09-24T07:05:55.053Z,91.10
2017-09-24T07:08:22.674Z,91.00
2017-09-24T07:10:50.282Z,91.10
2017-09-24T07:13:17.941Z,91.20
2017-09-24T07:15:45.554Z,91.20
2017-09-24T07:18:13.928Z,91.10
2017-09-24T07:20:41.574Z,91.10
2017-09-24T07:23:09.191Z,91.10
2017-09-24T07:25:37.581Z,91.00
2017-09-24T07:28:05.227Z,90.90
2017-09-24T07:30:32.839Z,90.90
2017-09-24T07:33:00.442Z,90.80
2017-09-24T07:35:28.254Z,90.90
2017-09-24T07:37:56.613Z,90.80
2017-09-24T07:40:25.006Z,90.90
2017-09-24T07:42:52.677Z,90.90
2017-09-24T07:45:20.282Z,90.80
2017-09-24T07:47:47.892Z,90.70
2017-09-24T07:50:15.701Z,90.50
2017-09-24T07:52:43.314Z,90.70
2017-09-24T07:55:11.690Z,90.60
2017-09-24T07:57:39.362Z,90.50
2017-09-24T08:00:06.979Z,90.20
2017-09-24T08:02:34.587Z,90.30
2017-09-24T08:05:02.243Z,90.10
2017-09-24T08:07:29.856Z,90.30
2017-09-24T08:09:57.491Z,90.20
2017-09-24T08:12:25.261Z,90.20
2017-09-24T08:14:52.862Z,90.20
2017-09-24T08:17:20.474Z,90.30
2017-09-24T08:19:48.140Z,90.20
2017-09-24T08:22:15.753Z,90.20
2017-09-24T08:24:43.424Z,90.20
2017-09-24T08:27:11.097Z,90.30
2017-09-24T08:29:39.482Z,90.10
2017-09-24T08:32:07.105Z,90.10
2017-09-24T08:34:35.527Z,90.30
2017-09-24T08:37:03.150Z,90.30
2017-09-24T08:39:30.763Z,90.50
2017-09-24T08:41:59.197Z,90.50
2017-09-24T08:44:26.840Z,90.50
2017-09-24T08:46:54.446Z,90.60
2017-09-24T08:49:22.235Z,90.70
2017-09-24T08:51:49.834Z,90.60
2017-09-24T08:54:17.456Z,90.60
2017-09-24T08:56:45.882Z,90.50
2017-09-24T08:59:13.478Z,90.50
2017-09-24T09:01:41.097Z,90.40
2017-09-24T09:04:09.715Z,90.90
2017-09-24T09:06:37.391Z,90.50
2017-09-24T09:09:06.498Z,90.20
2017-09-24T09:11:35.050Z,90.20
2017-09-24T09:14:02.651Z,90.10
2017-09-24T09:16:30.285Z,90.10
2017-09-24T09:18:57.933Z,90.10
2017-09-24T09:21:37.677Z,90.10
2017-09-24T09:24:05.336Z,90.10
2017-09-24T09:26:32.957Z,90.20
2017-09-24T09:29:00.634Z,90.30
2017-09-24T09:31:28.462Z,90.30
2017-09-24T09:33:56.186Z,90.50
2017-09-24T09:36:23.901Z,90.70
2017-09-24T09:38:52.314Z,90.80
2017-09-24T09:41:19.932Z,90.70
2017-09-24T09:43:47.539Z,90.70
2017-09-24T09:46:27.018Z,90.70
2017-09-24T09:48:54.640Z,90.60
2017-09-24T09:51:22.240Z,90.70
2017-09-24T09:53:49.997Z,90.70
2017-09-24T09:56:17.616Z,90.70
2017-09-24T09:58:45.216Z,90.70
2017-09-24T10:01:13.740Z,90.80
2017-09-24T10:03:41.359Z,90.80
2017-09-24T10:06:08.972Z,90.80
2017-09-24T10:08:49.462Z,90.80
2017-09-24T10:11:17.058Z,90.70
2017-09-24T10:13:45.427Z,90.40
2017-09-24T10:16:13.295Z,90.40
2017-09-24T10:18:40.904Z,90.50
2017-09-24T10:21:09.306Z,90.50
2017-09-24T10:23:37.110Z,90.20
2017-09-24T10:26:04.711Z,90.30
2017-09-24T10:28:44.510Z,90.30
2017-09-24T10:31:12.895Z,90.10
2017-09-24T10:33:40.492Z,90.10
2017-09-24T10:36:08.148Z,90.00
2017-09-24T10:38:36.529Z,89.50
2017-09-24T10:41:04.148Z,89.30
2017-09-24T10:43:31.795Z,89.50
2017-09-24T10:46:00.175Z,89.50
2017-09-24T10:48:28.550Z,89.40
2017-09-24T10:50:56.220Z,89.30
2017-09-24T10:53:23.891Z,89.10
2017-09-24T10:55:51.512Z,89.20
2017-09-24T10:58:19.350Z,89.00
2017-09-24T11:00:47.802Z,88.50
2017-09-24T11:03:15.404Z,88.60
2017-09-24T11:05:43.206Z,88.60
2017-09-24T11:08:10.803Z,88.60
2017-09-24T11:10:38.411Z,88.70
2017-09-24T11:13:06.054Z,88.90
2017-09-24T11:15:33.672Z,87.90
2017-09-24T11:18:01.295Z,87.80
2017-09-24T11:20:30.379Z,87.80
2017-09-24T11:22:58.019Z,87.80
2017-09-24T11:25:25.746Z,86.90
2017-09-24T11:27:53.557Z,86.10
2017-09-24T11:30:21.166Z,85.80
2017-09-24T11:32:49.591Z,86.20
2017-09-24T11:35:17.452Z,86.10
2017-09-24T11:37:45.059Z,86.10
2017-09-24T11:40:12.703Z,86.40
2017-09-24T11:42:40.385Z,86.30
2017-09-24T11:45:08.768Z,87.00
2017-09-24T11:47:37.209Z,86.40
2017-09-24T11:50:04.886Z,86.20
2017-09-24T11:52:33.281Z,86.40
2017-09-24T11:55:00.888Z,86.30
2017-09-24T11:57:28.538Z,86.50
2017-09-24T11:59:56.919Z,86.80
2017-09-24T12:02:24.518Z,86.70
2017-09-24T12:04:52.337Z,86.80
2017-09-24T12:07:19.955Z,87.10
2017-09-24T12:09:47.573Z,87.10
2017-09-24T12:12:16.108Z,86.80
2017-09-24T12:14:43.709Z,86.80
2017-09-24T12:17:11.409Z,86.60
2017-09-24T12:19:39.072Z,86.40
2017-09-24T12:22:06.805Z,86.50
2017-09-24T12:24:34.443Z,86.80
2017-09-24T12:27:02.099Z,86.00
2017-09-24T12:29:29.710Z,86.20
2017-09-24T12:31:57.351Z,86.90
2017-09-24T12:34:25.007Z,87.40
2017-09-24T12:36:52.629Z,88.10
2017-09-24T12:39:20.676Z,88.20
2017-09-24T12:41:48.408Z,88.60
2017-09-24T12:44:16.820Z,90.00
2017-09-24T12:46:44.565Z,90.00
2017-09-24T12:49:12.266Z,90.20
2017-09-24T12:51:40.659Z,90.40
2017-09-24T12:54:08.277Z,90.40
2017-09-24T12:56:36.721Z,90.30
2017-09-24T12:59:04.345Z,90.30
2017-09-24T13:01:31.968Z,90.20
2017-09-24T13:03:59.821Z,90.20
2017-09-24T13:06:27.426Z,90.10
2017-09-24T13:08:55.802Z,90.40
2017-09-24T13:11:23.497Z,90.40
2017-09-24T13:13:51.149Z,90.40
2017-09-24T13:16:18.766Z,90.00
2017-09-24T13:18:46.641Z,89.10
2017-09-24T13:21:14.513Z,88.90
2017-09-24T13:23:42.207Z,87.10
2017-09-24T13:26:10.027Z,86.80
2017-09-24T13:28:40.398Z,86.20
2017-09-24T13:31:08.172Z,86.20
2017-09-24T13:33:36.578Z,83.90
2017-09-24T13:36:04.284Z,83.80
2017-09-24T13:38:32.745Z,82.90
2017-09-24T13:41:01.231Z,82.60
2017-09-24T13:43:29.029Z,82.60
2017-09-24T13:45:56.776Z,81.70
2017-09-24T13:48:24.448Z,81.20
2017-09-24T13:50:53.374Z,80.50
2017-09-24T13:53:21.903Z,80.00
2017-09-24T13:55:49.793Z,80.00
2017-09-24T13:58:17.550Z,79.00
2017-09-24T14:00:45.244Z,78.10
2017-09-24T14:03:13.808Z,77.40
2017-09-24T14:05:42.199Z,77.50
2017-09-24T14:08:09.964Z,77.50
2017-09-24T14:10:37.644Z,76.60
2017-09-24T14:13:05.303Z,77.40
2017-09-24T14:15:32.964Z,77.50
2017-09-24T14:18:01.543Z,77.80
2017-09-24T14:20:29.277Z,77.80
2017-09-24T14:22:56.944Z,77.70
2017-09-24T14:25:24.693Z,77.30
2017-09-24T14:27:52.529Z,77.70
2017-09-24T14:30:20.147Z,77.30
2017-09-24T14:32:47.940Z,76.90
2017-09-24T14:35:15.566Z,77.20
2017-09-24T14:37:43.186Z,76.10
2017-09-24T14:40:12.966Z,76.70
2017-09-24T14:42:40.792Z,76.70
2017-09-24T14:45:08.977Z,77.20
2017-09-24T14:47:36.671Z,77.80
2017-09-24T14:50:04.470Z,78.20
2017-09-24T14:52:32.269Z,77.80
2017-09-24T14:54:59.966Z,77.00
2017-09-24T14:57:27.593Z,76.40
2017-09-24T14:59:55.371Z,76.80
2017-09-24T15:02:24.027Z,77.50
2017-09-24T15:04:51.852Z,77.40
2017-09-24T15:07:19.469Z,77.10
2017-09-24T15:09:47.224Z,76.40
2017-09-24T15:12:15.019Z,77.80
2017-09-24T15:14:42.740Z,78.10
2017-09-24T15:17:10.672Z,77.20
2017-09-24T15:19:38.387Z,76.40
2017-09-24T15:22:06.875Z,77.00
2017-09-24T15:24:34.692Z,76.90
2017-09-24T15:27:02.531Z,77.10
2017-09-24T15:29:30.239Z,78.20
2017-09-24T15:31:58.641Z,78.80
2017-09-24T15:34:27.049Z,80.00
2017-09-24T15:36:54.770Z,80.00
2017-09-24T15:39:22.520Z,80.20
2017-09-24T15:41:50.399Z,80.30
2017-09-24T15:44:19.880Z,80.70
2017-09-24T15:46:48.149Z,80.90
2017-09-24T15:49:15.773Z,81.70
2017-09-24T15:51:44.606Z,81.70
2017-09-24T15:54:12.368Z,81.70
2017-09-24T15:56:40.489Z,82.10
2017-09-24T15:59:16.564Z,82.40
2017-09-24T16:01:44.181Z,82.60
2017-09-24T16:04:11.804Z,82.60
2017-09-24T16:06:41.948Z,82.90
2017-09-24T16:09:09.586Z,83.20
2017-09-24T16:11:37.204Z,83.40
2017-09-24T16:14:05.586Z,83.10
2017-09-24T16:16:33.211Z,83.40
2017-09-24T16:19:02.003Z,83.90
2017-09-24T16:21:30.562Z,84.20
2017-09-24T16:23:58.204Z,84.20
2017-09-24T16:26:25.811Z,84.40
2017-09-24T16:28:54.236Z,85.30
2017-09-24T16:31:21.852Z,85.30
2017-09-24T16:33:49.450Z,85.30
2017-09-24T16:36:17.113Z,85.50
2017-09-24T16:38:45.592Z,86.00
2017-09-24T16:41:13.250Z,86.00
2017-09-24T16:43:41.006Z,86.30
2017-09-24T16:46:08.620Z,86.50
2017-09-24T16:48:37.042Z,86.70
2017-09-24T16:51:04.701Z,86.70
2017-09-24T16:53:32.340Z,86.80
2017-09-24T16:55:59.966Z,86.90
2017-09-24T16:58:27.799Z,87.30
2017-09-24T17:00:55.407Z,87.60
2017-09-24T17:03:23.885Z,89.00
2017-09-24T17:05:51.558Z,88.20
2017-09-24T17:08:19.184Z,88.50
2017-09-24T17:10:46.795Z,88.50
2017-09-24T17:13:14.594Z,88.80
2017-09-24T17:15:42.217Z,89.00
2017-09-24T17:18:09.921Z,89.20
2017-09-24T17:20:38.344Z,89.30
2017-09-24T17:23:05.996Z,89.50
2017-09-24T17:25:33.603Z,89.60
2017-09-24T17:28:02.835Z,89.90
2017-09-24T17:30:32.843Z,89.90
2017-09-24T17:33:00.452Z,90.00
2017-09-24T17:35:28.152Z,90.10
2017-09-24T17:37:55.753Z,90.10
2017-09-24T17:40:23.359Z,90.10
2017-09-24T17:42:51.800Z,90.20
2017-09-24T17:45:19.411Z,90.20
2017-09-24T17:47:47.011Z,90.30
2017-09-24T17:50:15.550Z,90.50
2017-09-24T17:52:43.165Z,90.50
2017-09-24T17:55:10.785Z,90.50
2017-09-24T17:57:39.224Z,90.80
2017-09-24T18:00:07.291Z,90.80
2017-09-24T18:02:35.665Z,90.90
2017-09-24T18:05:03.348Z,90.80
2017-09-24T18:07:30.955Z,91.10
2017-09-24T18:09:59.341Z,91.30
2017-09-24T18:12:27.001Z,91.30
2017-09-24T18:14:54.611Z,91.60
2017-09-24T18:17:22.216Z,91.60
2017-09-24T18:19:49.881Z,91.60
2017-09-24T18:22:17.504Z,91.70
2017-09-24T18:24:45.103Z,91.80
2017-09-24T18:27:13.081Z,91.80
2017-09-24T18:29:40.683Z,91.90
2017-09-24T18:32:09.064Z,91.90
2017-09-24T18:34:36.861Z,91.90
2017-09-24T18:37:04.458Z,92.10
2017-09-24T18:39:32.076Z,92.00
2017-09-24T18:42:00.503Z,92.10
2017-09-24T18:44:28.117Z,92.10
2017-09-24T18:46:55.839Z,92.20
2017-09-24T18:49:23.519Z,92.20
2017-09-24T18:51:51.135Z,92.20
2017-09-24T18:54:19.520Z,92.30
2017-09-24T18:56:48.137Z,92.30
2017-09-24T18:59:15.833Z,92.30
2017-09-24T19:01:43.489Z,92.30
2017-09-24T19:04:11.180Z,92.30
2017-09-24T19:06:38.799Z,92.30
2017-09-24T19:09:08.195Z,92.70
2017-09-24T19:11:38.520Z,92.50
2017-09-24T19:14:07.358Z,92.50
2017-09-24T19:16:35.142Z,92.70
2017-09-24T19:19:03.277Z,92.70
2017-09-24T19:21:30.986Z,92.80
2017-09-24T19:23:58.606Z,92.90
2017-09-24T19:26:27.254Z,93.00
2017-09-24T19:28:55.866Z,92.90
2017-09-24T19:31:23.610Z,92.90
2017-09-24T19:33:51.505Z,92.90
2017-09-24T19:36:20.284Z,93.10
2017-09-24T19:38:48.687Z,93.10
2017-09-24T19:41:16.433Z,93.10
2017-09-24T19:43:44.083Z,93.10
2017-09-24T19:46:11.806Z,93.00
2017-09-24T19:48:39.458Z,93.10
2017-09-24T19:51:07.827Z,93.10
2017-09-24T19:53:36.219Z,93.20
2017-09-24T19:56:04.071Z,93.20
2017-09-24T19:58:31.692Z,93.10
2017-09-24T20:01:00.071Z,93.10
2017-09-24T20:03:27.726Z,93.10
2017-09-24T20:05:55.337Z,93.20
2017-09-24T20:08:23.702Z,93.20
2017-09-24T20:10:52.134Z,93.20
2017-09-24T20:13:19.752Z,93.20
2017-09-24T20:15:47.379Z,93.30
2017-09-24T20:18:15.039Z,93.30
2017-09-24T20:20:42.686Z,93.30
2017-09-24T20:23:10.290Z,93.40
2017-09-24T20:25:38.707Z,93.40
2017-09-24T20:28:06.316Z,93.30
2017-09-24T20:30:33.960Z,93.30
2017-09-24T20:33:01.602Z,93.20
2017-09-24T20:35:29.203Z,93.20
2017-09-24T20:37:56.827Z,93.30
2017-09-24T20:40:24.477Z,93.30
2017-09-24T20:42:52.080Z,93.30
2017-09-24T20:45:19.679Z,93.30
2017-09-24T20:47:47.392Z,93.40
2017-09-24T20:50:15.205Z,93.30
2017-09-24T20:52:42.837Z,93.50
2017-09-24T20:55:10.528Z,93.40
2017-09-24T20:57:38.148Z,93.40
2017-09-24T21:00:06.522Z,93.40
2017-09-24T21:02:34.174Z,93.40
2017-09-24T21:05:01.795Z,93.40
2017-09-24T21:07:30.167Z,93.20
2017-09-24T21:09:57.815Z,93.20
2017-09-24T21:12:25.435Z,93.30
2017-09-24T21:14:53.815Z,93.30
2017-09-24T21:17:22.248Z,93.30
2017-09-24T21:19:49.854Z,93.30
2017-09-24T21:22:17.464Z,93.30
2017-09-24T21:24:45.893Z,93.30
2017-09-24T21:27:13.485Z,93.30
2017-09-24T21:29:41.103Z,93.30
2017-09-24T21:32:09.539Z,93.50
2017-09-24T21:34:37.161Z,93.50
2017-09-24T21:37:04.839Z,93.60
2017-09-24T21:39:33.265Z,93.50
2017-09-24T21:42:00.910Z,93.50
2017-09-24T21:44:28.518Z,93.50
2017-09-24T21:46:56.943Z,93.50
2017-09-24T21:49:24.600Z,93.50
2017-09-24T21:51:52.222Z,93.50
2017-09-24T21:54:20.104Z,93.60
2017-09-24T21:56:47.726Z,93.60
2017-09-24T21:59:15.335Z,93.40
2017-09-24T22:01:43.185Z,93.50
2017-09-24T22:04:10.779Z,93.40
2017-09-24T22:06:38.400Z,93.50
2017-09-24T22:09:06.247Z,93.60
2017-09-24T22:11:33.855Z,93.60
2017-09-24T22:14:02.222Z,93.70
2017-09-24T22:16:29.988Z,93.70
2017-09-24T22:18:57.601Z,93.80
2017-09-24T22:21:25.971Z,93.80
2017-09-24T22:23:54.391Z,93.90
2017-09-24T22:26:22.015Z,94.20
2017-09-24T22:28:49.614Z,94.00
2017-09-24T22:31:18.224Z,94.10
2017-09-24T22:33:45.839Z,94.10
2017-09-24T22:36:13.445Z,94.10
2017-09-24T22:38:41.254Z,94.10
2017-09-24T22:41:08.856Z,94.20
2017-09-24T22:43:36.455Z,94.10
2017-09-24T22:46:04.105Z,94.10
2017-09-24T22:48:31.719Z,94.00
2017-09-24T22:51:00.100Z,94.10
2017-09-24T22:53:27.848Z,94.10
2017-09-24T22:55:55.444Z,94.20
2017-09-24T22:58:23.053Z,94.20
2017-09-24T23:00:50.804Z,94.30
2017-09-24T23:03:18.405Z,94.40
2017-09-24T23:05:46.010Z,94.40
2017-09-24T23:08:13.739Z,94.30
2017-09-24T23:10:41.341Z,94.40
2017-09-24T23:13:08.955Z,94.50
2017-09-24T23:15:36.702Z,94.60
2017-09-24T23:18:04.303Z,94.60
2017-09-24T23:20:31.919Z,94.60
2017-09-24T23:23:00.429Z,94.80
2017-09-24T23:25:28.030Z,94.80
2017-09-24T23:27:55.652Z,94.80
2017-09-24T23:30:23.457Z,94.70
2017-09-24T23:32:51.076Z,94.70
2017-09-24T23:35:18.684Z,94.90
2017-09-24T23:37:46.355Z,94.90
2017-09-24T23:40:13.992Z,95.00
2017-09-24T23:42:42.357Z,95.10
2017-09-24T23:45:10.965Z,95.10
2017-09-24T23:47:38.574Z,95.10
2017-09-24T23:50:06.957Z,95.30
2017-09-24T23:52:34.714Z,95.30
2017-09-24T23:55:02.400Z,95.30
2017-09-24T23:57:30.778Z,95.80
2017-09-24T23:59:59.224Z,95.80
